Time;durP1;ratioP1;P1;durP2;ratioP2;P2;SDS_P1;SDS_P2;PMS_P1;PMS_P2;Temp;Humidity;BMP_temperature;BMP_pressure;BME280_temperature;BME280_humidity;BME280_pressure;Samples;Min_cycle;Max_cycle;Signal;HPM_P1;HPM_P2
2022/09/14 00:00:13;;;;;;;;;;;15.40;99.90;;;;;;5044506;28;19920;-74
2022/09/14 00:02:38;;;;;;;;;;;15.30;99.90;;;;;;5051392;28;19924;-74
2022/09/14 00:05:04;;;;;;;;;;;15.40;99.90;;;;;;5028052;28;20008;-74
2022/09/14 00:07:30;;;;;;;;;;;15.50;99.90;;;;;;5025555;28;20037;-74
2022/09/14 00:09:55;;;;;;;;;;;15.40;99.90;;;;;;5027240;28;20548;-75
2022/09/14 00:12:21;;;;;;;;;;;15.50;99.90;;;;;;5027128;28;19920;-73
2022/09/14 00:14:46;;;;;;;;;;;15.50;99.90;;;;;;5043485;28;20308;-74
2022/09/14 00:17:12;;;;;;;;;;;15.50;99.90;;;;;;5027803;28;19921;-74
2022/09/14 00:19:37;;;;;;;;;;;15.50;99.90;;;;;;5051283;28;19974;-74
2022/09/14 00:22:05;;;;;;;;;;;15.50;99.90;;;;;;5052429;28;19920;-74
2022/09/14 00:24:31;;;;;;;;;;;15.50;99.90;;;;;;5074233;28;19920;-74
2022/09/14 00:26:57;;;;;;;;;;;15.50;99.90;;;;;;5055896;28;19959;-74
2022/09/14 00:29:23;;;;;;;;;;;15.50;99.90;;;;;;5074386;28;19962;-74
2022/09/14 00:31:48;;;;;;;;;;;15.50;99.90;;;;;;5050074;28;19924;-75
2022/09/14 00:34:15;;;;;;;;;;;15.50;99.90;;;;;;5044214;28;20297;-75
2022/09/14 00:36:43;;;;;;;;;;;15.50;99.90;;;;;;5044082;28;19978;-75
2022/09/14 00:39:10;;;;;;;;;;;15.50;99.90;;;;;;5062970;28;19928;-75
2022/09/14 00:41:37;;;;;;;;;;;15.50;99.90;;;;;;5065558;28;20015;-75
2022/09/14 00:44:05;;;;;;;;;;;15.50;99.90;;;;;;5047921;28;20015;-74
2022/09/14 00:46:34;;;;;;;;;;;15.50;99.90;;;;;;5061327;28;19920;-74
2022/09/14 00:49:03;;;;;;;;;;;15.60;99.90;;;;;;5059833;28;19966;-74
2022/09/14 00:51:30;;;;;;;;;;;15.50;99.90;;;;;;5044267;28;19920;-74
2022/09/14 00:53:56;;;;;;;;;;;15.50;99.90;;;;;;5043352;28;19928;-75
2022/09/14 00:56:21;;;;;;;;;;;15.50;99.90;;;;;;5061506;28;19920;-74
2022/09/14 00:58:49;;;;;;;;;;;15.50;99.90;;;;;;5062247;28;19920;-74
2022/09/14 01:01:15;;;;;;;;;;;15.40;99.90;;;;;;5047657;28;20010;-74
2022/09/14 01:03:40;;;;;;;;;;;15.40;99.90;;;;;;5073367;28;20057;-73
2022/09/14 01:06:09;;;;;;;;;;;15.30;99.90;;;;;;5055802;28;19974;-74
2022/09/14 01:08:53;;;;;;;;;;;15.30;99.90;;;;;;5056306;28;19920;-73
2022/09/14 01:11:21;;;;;;;;;;;15.30;99.90;;;;;;5075384;28;19949;-73
2022/09/14 01:13:57;;;;;;;;;;;15.30;99.90;;;;;;5074614;28;19920;-73
2022/09/14 01:16:29;;;;;;;;;;;15.30;99.90;;;;;;5065778;28;19983;-73
2022/09/14 01:19:04;;;;;;;;;;;15.30;99.90;;;;;;5047549;28;19963;-74
2022/09/14 01:21:34;;;;;;;;;;;15.30;99.90;;;;;;5058328;28;19920;-74
2022/09/14 01:24:18;;;;;;;;;;;15.40;99.90;;;;;;5055061;28;20368;-74
2022/09/14 01:26:52;;;;;;;;;;;15.30;99.90;;;;;;5039208;28;19943;-74
2022/09/14 01:29:41;;;;;;;;;;;15.40;99.90;;;;;;5041721;28;19924;-73
2022/09/14 01:32:21;;;;;;;;;;;15.40;99.90;;;;;;5050314;28;19927;-74
2022/09/14 01:34:56;;;;;;;;;;;15.40;99.90;;;;;;5032983;28;19924;-74
2022/09/14 01:37:54;;;;;;;;;;;15.40;99.90;;;;;;5056185;28;19943;-74
2022/09/14 01:40:32;;;;;;;;;;;15.40;99.90;;;;;;5020414;28;19928;-74
2022/09/14 01:43:00;;;;;;;;;;;15.40;99.90;;;;;;5034462;28;19921;-74
2022/09/14 01:45:27;;;;;;;;;;;15.50;99.90;;;;;;5052848;28;20387;-74
2022/09/14 01:47:54;;;;;;;;;;;15.40;99.90;;;;;;5024825;28;19921;-74
2022/09/14 01:50:30;;;;;;;;;;;15.40;99.90;;;;;;5035286;28;20361;-74
2022/09/14 01:53:04;;;;;;;;;;;15.40;99.90;;;;;;5049019;28;19927;-73
2022/09/14 01:55:42;;;;;;;;;;;15.30;99.90;;;;;;5052714;28;19927;-74
2022/09/14 01:58:19;;;;;;;;;;;15.30;99.90;;;;;;5034873;28;19921;-73
2022/09/14 02:00:45;;;;;;;;;;;15.20;99.90;;;;;;5051970;28;19983;-73
2022/09/14 02:03:23;;;;;;;;;;;15.20;99.90;;;;;;5023853;28;20102;-74
2022/09/14 02:06:06;;;;;;;;;;;15.10;99.90;;;;;;5030537;28;19960;-73
2022/09/14 02:08:32;;;;;;;;;;;15.10;99.90;;;;;;5032742;28;19927;-74
2022/09/14 02:10:58;;;;;;;;;;;15.00;99.90;;;;;;5034619;28;19971;-75
2022/09/14 02:13:25;;;;;;;;;;;15.10;99.90;;;;;;5034044;28;19927;-73
2022/09/14 02:15:51;;;;;;;;;;;15.00;99.90;;;;;;5032744;28;19947;-74
2022/09/14 02:18:17;;;;;;;;;;;15.00;99.90;;;;;;5022767;28;20285;-74
2022/09/14 02:20:47;;;;;;;;;;;15.00;99.90;;;;;;5021658;28;19921;-73
2022/09/14 02:23:13;;;;;;;;;;;15.00;99.90;;;;;;5046810;28;20399;-74
2022/09/14 02:25:41;;;;;;;;;;;15.00;99.90;;;;;;5033788;28;19924;-74
2022/09/14 02:28:07;;;;;;;;;;;15.00;99.90;;;;;;5033502;28;19932;-73
2022/09/14 02:30:40;;;;;;;;;;;15.00;99.90;;;;;;5051654;28;19921;-74
2022/09/14 02:33:19;;;;;;;;;;;15.00;99.90;;;;;;5040172;28;20411;-74
2022/09/14 02:35:47;;;;;;;;;;;15.00;99.90;;;;;;5030285;28;20015;-74
2022/09/14 02:38:13;;;;;;;;;;;15.00;99.90;;;;;;5051728;28;20020;-74
2022/09/14 02:41:01;;;;;;;;;;;15.00;99.90;;;;;;5051527;28;20015;-74
2022/09/14 02:43:30;;;;;;;;;;;15.00;99.90;;;;;;4991954;28;19921;-74
2022/09/14 02:46:14;;;;;;;;;;;15.00;99.90;;;;;;5032377;28;20441;-74
2022/09/14 02:48:48;;;;;;;;;;;15.00;99.90;;;;;;5047203;28;19928;-73
2022/09/14 02:51:23;;;;;;;;;;;15.00;99.90;;;;;;5048244;28;20406;-75
2022/09/14 02:54:01;;;;;;;;;;;15.00;99.90;;;;;;5033181;28;19971;-74
2022/09/14 02:56:27;;;;;;;;;;;15.10;99.90;;;;;;5033470;28;20342;-74
2022/09/14 02:58:53;;;;;;;;;;;15.10;99.90;;;;;;5033561;28;19928;-74
2022/09/14 03:01:19;;;;;;;;;;;15.10;99.90;;;;;;5027994;28;19925;-74
2022/09/14 03:03:45;;;;;;;;;;;15.10;99.90;;;;;;5023906;28;20007;-74
2022/09/14 03:06:10;;;;;;;;;;;15.10;99.90;;;;;;5039504;28;20040;-73
2022/09/14 03:08:39;;;;;;;;;;;15.00;99.90;;;;;;5043490;28;20364;-74
2022/09/14 03:11:05;;;;;;;;;;;15.10;99.90;;;;;;5047285;28;19916;-73
2022/09/14 03:13:30;;;;;;;;;;;15.10;99.90;;;;;;5033888;28;20383;-73
2022/09/14 03:15:56;;;;;;;;;;;15.00;99.90;;;;;;5048459;28;19928;-74
2022/09/14 03:18:24;;;;;;;;;;;15.10;99.90;;;;;;5023519;28;19956;-73
2022/09/14 03:20:49;;;;;;;;;;;15.10;99.90;;;;;;5047918;28;20284;-74
2022/09/14 03:23:15;;;;;;;;;;;15.10;99.90;;;;;;5061382;28;19920;-74
2022/09/14 03:25:42;;;;;;;;;;;15.00;99.90;;;;;;5044919;28;19920;-74
2022/09/14 03:28:08;;;;;;;;;;;15.00;99.90;;;;;;5043086;28;19920;-73
2022/09/14 03:30:34;;;;;;;;;;;15.00;99.90;;;;;;5062102;28;19920;-73
2022/09/14 03:33:00;;;;;;;;;;;15.00;99.90;;;;;;5069274;28;19921;-74
2022/09/14 03:35:30;;;;;;;;;;;15.00;99.90;;;;;;5059832;28;20395;-73
2022/09/14 03:37:59;;;;;;;;;;;15.00;99.90;;;;;;5044189;28;20039;-73
2022/09/14 03:40:25;;;;;;;;;;;14.90;99.90;;;;;;5059598;28;19921;-74
2022/09/14 03:42:51;;;;;;;;;;;14.90;99.90;;;;;;5044175;28;19927;-74
2022/09/14 03:45:17;;;;;;;;;;;14.90;99.90;;;;;;5066262;28;19966;-73
2022/09/14 03:47:43;;;;;;;;;;;14.90;99.90;;;;;;5063824;28;19927;-74
2022/09/14 03:50:11;;;;;;;;;;;14.80;99.90;;;;;;5060746;28;19920;-73
2022/09/14 03:52:36;;;;;;;;;;;14.90;99.90;;;;;;5061688;28;20739;-74
2022/09/14 03:55:03;;;;;;;;;;;14.90;99.90;;;;;;5044212;28;20019;-73
2022/09/14 03:57:29;;;;;;;;;;;14.80;99.90;;;;;;5064267;28;19931;-74
2022/09/14 03:59:54;;;;;;;;;;;14.90;99.90;;;;;;5043150;28;19921;-73
2022/09/14 04:02:20;;;;;;;;;;;14.80;99.90;;;;;;5051564;28;19928;-73
2022/09/14 04:04:47;;;;;;;;;;;14.80;99.90;;;;;;5066469;28;19947;-73
2022/09/14 04:07:14;;;;;;;;;;;14.80;99.90;;;;;;5045832;28;19921;-73
2022/09/14 04:09:39;;;;;;;;;;;14.80;99.90;;;;;;5053030;28;19927;-73
2022/09/14 04:12:05;;;;;;;;;;;14.90;99.90;;;;;;5046579;28;19920;-73
2022/09/14 04:14:31;;;;;;;;;;;14.80;99.90;;;;;;5064710;28;20305;-74
2022/09/14 04:16:56;;;;;;;;;;;14.80;99.90;;;;;;5064638;28;19921;-73
2022/09/14 04:19:22;;;;;;;;;;;14.80;99.90;;;;;;5065439;28;20292;-73
2022/09/14 04:21:47;;;;;;;;;;;14.80;99.90;;;;;;5044788;28;19928;-73
2022/09/14 04:24:13;;;;;;;;;;;14.80;99.90;;;;;;5046681;28;19921;-73
2022/09/14 04:26:38;;;;;;;;;;;14.80;99.90;;;;;;5065236;28;19928;-74
2022/09/14 04:29:04;;;;;;;;;;;14.80;99.90;;;;;;5062109;28;20335;-71
2022/09/14 04:31:30;;;;;;;;;;;14.80;99.90;;;;;;5072706;28;19967;-77
2022/09/14 04:33:56;;;;;;;;;;;14.90;99.90;;;;;;5062247;28;19944;-73
2022/09/14 04:36:24;;;;;;;;;;;14.80;99.90;;;;;;5073852;28;19920;-76
2022/09/14 04:38:51;;;;;;;;;;;14.90;99.90;;;;;;5051930;28;19920;-75
2022/09/14 04:41:19;;;;;;;;;;;14.90;99.90;;;;;;5063755;28;19921;-72
2022/09/14 04:43:45;;;;;;;;;;;14.90;99.90;;;;;;5064913;28;19920;-72
2022/09/14 04:46:14;;;;;;;;;;;14.90;99.90;;;;;;5054114;28;19974;-71
2022/09/14 04:48:40;;;;;;;;;;;14.90;99.90;;;;;;5044778;28;19924;-72
2022/09/14 04:51:08;;;;;;;;;;;15.00;99.90;;;;;;5046566;28;20055;-75
2022/09/14 04:53:34;;;;;;;;;;;14.90;99.90;;;;;;5043231;28;20376;-76
2022/09/14 04:56:00;;;;;;;;;;;15.00;99.90;;;;;;5046530;28;20007;-74
2022/09/14 04:58:27;;;;;;;;;;;15.00;99.90;;;;;;5053623;28;19921;-73
2022/09/14 05:00:54;;;;;;;;;;;15.00;99.90;;;;;;5044003;28;19965;-80
2022/09/14 05:03:20;;;;;;;;;;;15.00;99.90;;;;;;5055344;28;20005;-74
2022/09/14 05:05:46;;;;;;;;;;;15.00;99.90;;;;;;5055960;28;19920;-73
2022/09/14 05:08:12;;;;;;;;;;;15.00;99.90;;;;;;5071594;28;19928;-78
2022/09/14 05:10:37;;;;;;;;;;;15.00;99.90;;;;;;5045890;28;20280;-76
2022/09/14 05:13:03;;;;;;;;;;;15.00;99.90;;;;;;5062537;28;19954;-79
2022/09/14 05:15:28;;;;;;;;;;;15.00;99.90;;;;;;5047661;28;19946;-71
2022/09/14 05:17:54;;;;;;;;;;;15.00;99.90;;;;;;5072382;28;19927;-73
2022/09/14 05:20:20;;;;;;;;;;;15.00;99.90;;;;;;5070668;28;19928;-76
2022/09/14 05:22:48;;;;;;;;;;;15.00;99.90;;;;;;5070845;28;20538;-74
2022/09/14 05:25:13;;;;;;;;;;;15.00;99.90;;;;;;5066695;28;19920;-74
2022/09/14 05:27:39;;;;;;;;;;;15.00;99.90;;;;;;5043825;28;20284;-74
2022/09/14 05:30:05;;;;;;;;;;;15.10;99.90;;;;;;5043487;28;20035;-73
2022/09/14 05:32:30;;;;;;;;;;;15.00;99.90;;;;;;5052561;28;20003;-75
2022/09/14 05:34:56;;;;;;;;;;;15.00;99.90;;;;;;5035504;28;19970;-73
2022/09/14 05:37:22;;;;;;;;;;;15.10;99.90;;;;;;5052768;28;20388;-74
2022/09/14 05:39:47;;;;;;;;;;;15.10;99.90;;;;;;5053570;28;19920;-75
2022/09/14 05:42:13;;;;;;;;;;;15.00;99.90;;;;;;5057284;28;19920;-78
2022/09/14 05:44:38;;;;;;;;;;;15.10;99.90;;;;;;5064252;28;20772;-76
2022/09/14 05:47:04;;;;;;;;;;;15.10;99.90;;;;;;5060784;28;19960;-79
2022/09/14 05:49:29;;;;;;;;;;;15.10;99.90;;;;;;5063218;28;20284;-75
2022/09/14 05:51:55;;;;;;;;;;;15.10;99.90;;;;;;5043233;28;19963;-77
2022/09/14 05:54:20;;;;;;;;;;;15.20;99.90;;;;;;5051766;28;19924;-75
2022/09/14 05:56:46;;;;;;;;;;;15.20;99.90;;;;;;5053529;28;19927;-75
2022/09/14 05:59:12;;;;;;;;;;;15.20;99.90;;;;;;5071714;28;20523;-75
2022/09/14 06:01:37;;;;;;;;;;;15.20;99.90;;;;;;5054349;28;20006;-75
2022/09/14 06:04:03;;;;;;;;;;;15.20;99.90;;;;;;5072466;28;19954;-75
2022/09/14 06:06:29;;;;;;;;;;;15.20;99.90;;;;;;5071556;28;19928;-75
2022/09/14 06:08:55;;;;;;;;;;;15.20;99.90;;;;;;5045853;28;19944;-75
2022/09/14 06:11:22;;;;;;;;;;;15.20;99.90;;;;;;5063333;28;19920;-76
2022/09/14 06:13:48;;;;;;;;;;;15.20;99.90;;;;;;5072335;28;20015;-76
2022/09/14 06:16:15;;;;;;;;;;;15.20;99.90;;;;;;5072555;28;19920;-77
2022/09/14 06:18:41;;;;;;;;;;;15.20;99.90;;;;;;5072273;28;19921;-77
2022/09/14 06:21:07;;;;;;;;;;;15.30;99.90;;;;;;5046843;28;19921;-77
2022/09/14 06:23:33;;;;;;;;;;;15.40;99.90;;;;;;5025555;28;19924;-77
2022/09/14 06:26:00;;;;;;;;;;;15.40;99.90;;;;;;5040446;28;19925;-80
2022/09/14 06:28:26;;;;;;;;;;;15.50;99.90;;;;;;5025135;28;21430;-81
2022/09/14 06:30:51;;;;;;;;;;;15.50;99.90;;;;;;5024228;28;19920;-80
2022/09/14 06:33:17;;;;;;;;;;;15.60;99.90;;;;;;5023830;28;19921;-76
2022/09/14 06:35:52;;;;;;;;;;;15.70;99.90;;;;;;5042109;28;19920;-75
2022/09/14 06:38:17;;;;;;;;;;;15.60;99.90;;;;;;5046913;28;19943;-76
2022/09/14 06:40:54;;;;;;;;;;;15.70;99.90;;;;;;5041920;28;20384;-77
2022/09/14 06:43:20;;;;;;;;;;;15.70;99.90;;;;;;5025031;28;19924;-79
2022/09/14 06:45:53;;;;;;;;;;;15.80;99.90;;;;;;5023646;28;19927;-78
2022/09/14 06:48:19;;;;;;;;;;;15.90;99.90;;;;;;5042391;28;19932;-79
2022/09/14 06:50:47;;;;;;;;;;;15.80;99.90;;;;;;5024108;28;19920;-74
2022/09/14 06:53:16;;;;;;;;;;;15.90;99.90;;;;;;5027372;28;20034;-75
2022/09/14 06:55:44;;;;;;;;;;;15.90;99.90;;;;;;5033556;28;19920;-75
2022/09/14 06:58:10;;;;;;;;;;;15.90;99.90;;;;;;5034732;28;20033;-76
2022/09/14 07:00:35;;;;;;;;;;;16.00;99.90;;;;;;5035063;28;20356;-76
2022/09/14 07:03:01;;;;;;;;;;;16.00;99.90;;;;;;5035507;28;20721;-71
2022/09/14 07:05:26;;;;;;;;;;;16.10;99.90;;;;;;5053046;28;19921;-74
2022/09/14 07:07:52;;;;;;;;;;;16.10;99.90;;;;;;5030921;28;20280;-74
2022/09/14 07:10:18;;;;;;;;;;;16.30;99.90;;;;;;5039154;28;19975;-79
2022/09/14 07:12:43;;;;;;;;;;;16.30;99.90;;;;;;5024142;28;19921;-82
2022/09/14 07:15:09;;;;;;;;;;;16.40;99.90;;;;;;5023979;28;19928;-80
2022/09/14 07:17:38;;;;;;;;;;;16.40;99.90;;;;;;5040010;28;19960;-80
2022/09/14 07:20:04;;;;;;;;;;;16.50;99.90;;;;;;5042257;28;20012;-81
2022/09/14 07:22:33;;;;;;;;;;;16.60;99.90;;;;;;5043787;28;20342;-81
2022/09/14 07:24:59;;;;;;;;;;;16.70;99.90;;;;;;5052988;28;19931;-81
2022/09/14 07:27:25;;;;;;;;;;;16.70;99.90;;;;;;5053737;28;19920;-80
2022/09/14 07:29:50;;;;;;;;;;;16.80;99.90;;;;;;5065320;28;19966;-82
2022/09/14 07:32:16;;;;;;;;;;;16.90;99.90;;;;;;5053671;28;20296;-81
2022/09/14 07:34:42;;;;;;;;;;;17.00;99.90;;;;;;5070768;28;19927;-81
2022/09/14 07:37:10;;;;;;;;;;;17.30;99.90;;;;;;5070185;28;19924;-82
2022/09/14 07:39:39;;;;;;;;;;;17.80;99.90;;;;;;5043562;28;19924;-82
2022/09/14 07:42:04;;;;;;;;;;;19.00;99.90;;;;;;5061530;28;20387;-80
2022/09/14 07:44:30;;;;;;;;;;;20.30;99.90;;;;;;5061876;28;19920;-84
2022/09/14 07:46:55;;;;;;;;;;;21.60;99.90;;;;;;5043234;28;20029;-85
2022/09/14 07:49:21;;;;;;;;;;;22.50;99.90;;;;;;5067129;28;19942;-82
2022/09/14 07:51:47;;;;;;;;;;;23.00;98.60;;;;;;5066420;28;19920;-81
2022/09/14 07:54:15;;;;;;;;;;;23.30;97.50;;;;;;5051813;28;20319;-83
2022/09/14 07:56:44;;;;;;;;;;;23.50;98.20;;;;;;5046216;28;19999;-82
2022/09/14 07:59:10;;;;;;;;;;;23.80;96.20;;;;;;5045404;28;20011;-81
2022/09/14 08:01:36;;;;;;;;;;;24.40;93.70;;;;;;5065489;28;20240;-82
2022/09/14 08:04:02;;;;;;;;;;;24.90;92.40;;;;;;5049459;28;20014;-83
2022/09/14 08:06:28;;;;;;;;;;;25.30;91.60;;;;;;5070472;28;20371;-81
2022/09/14 08:08:54;;;;;;;;;;;25.20;91.90;;;;;;5055060;28;19966;-76
2022/09/14 08:11:27;;;;;;;;;;;24.90;91.90;;;;;;5057847;28;19931;-77
2022/09/14 08:13:57;;;;;;;;;;;24.50;92.20;;;;;;5074998;28;19939;-72
2022/09/14 08:16:24;;;;;;;;;;;24.10;92.20;;;;;;5057632;28;19967;-77
2022/09/14 08:18:54;;;;;;;;;;;23.50;94.00;;;;;;5074221;28;19936;-78
2022/09/14 08:21:20;;;;;;;;;;;23.30;92.90;;;;;;5055988;28;19924;-79
2022/09/14 08:23:45;;;;;;;;;;;23.10;93.60;;;;;;5065443;28;19966;-78
2022/09/14 08:26:13;;;;;;;;;;;22.90;93.90;;;;;;5062904;28;19924;-78
2022/09/14 08:28:39;;;;;;;;;;;23.00;93.50;;;;;;5065057;28;19942;-77
2022/09/14 08:31:06;;;;;;;;;;;23.20;92.10;;;;;;5045064;28;19924;-77
2022/09/14 08:33:33;;;;;;;;;;;24.00;92.10;;;;;;5063950;28;19974;-76
2022/09/14 08:35:58;;;;;;;;;;;24.90;90.80;;;;;;5064034;28;19969;-74
2022/09/14 08:38:24;;;;;;;;;;;25.70;88.80;;;;;;5063501;28;20358;-80
2022/09/14 08:40:50;;;;;;;;;;;25.80;89.30;;;;;;5062269;28;19943;-76
2022/09/14 08:43:17;;;;;;;;;;;25.20;87.70;;;;;;5063467;28;20284;-75
2022/09/14 08:45:43;;;;;;;;;;;25.20;88.50;;;;;;5073699;28;20279;-76
2022/09/14 08:48:21;;;;;;;;;;;25.10;90.10;;;;;;5055403;28;19925;-77
2022/09/14 08:50:52;;;;;;;;;;;25.50;89.60;;;;;;5053666;28;19943;-82
2022/09/14 08:53:21;;;;;;;;;;;26.10;88.10;;;;;;5055722;28;19962;-79
2022/09/14 08:55:48;;;;;;;;;;;26.50;88.20;;;;;;5073695;28;20287;-76
2022/09/14 08:58:14;;;;;;;;;;;26.90;86.50;;;;;;5067958;28;19959;-83
2022/09/14 09:00:42;;;;;;;;;;;26.90;83.60;;;;;;5044124;28;20442;-78
2022/09/14 09:03:27;;;;;;;;;;;26.70;85.40;;;;;;5052211;28;19924;-78
2022/09/14 09:06:12;;;;;;;;;;;26.00;83.90;;;;;;5054257;28;19920;-78
2022/09/14 09:08:43;;;;;;;;;;;25.50;88.20;;;;;;5069704;28;20025;-77
2022/09/14 09:11:13;;;;;;;;;;;25.00;89.70;;;;;;5070689;28;19968;-77
2022/09/14 09:13:39;;;;;;;;;;;24.50;90.10;;;;;;5046685;28;20114;-73
2022/09/14 09:16:06;;;;;;;;;;;24.40;90.30;;;;;;5043610;28;19971;-75
2022/09/14 09:18:41;;;;;;;;;;;24.60;89.90;;;;;;5046947;28;19928;-73
2022/09/14 09:21:12;;;;;;;;;;;24.70;89.50;;;;;;5061434;28;20003;-74
2022/09/14 09:23:38;;;;;;;;;;;24.50;88.90;;;;;;5041228;28;19980;-73
2022/09/14 09:26:24;;;;;;;;;;;24.20;89.70;;;;;;5046114;28;19927;-73
2022/09/14 09:28:55;;;;;;;;;;;23.80;90.10;;;;;;5051037;28;20348;-72
2022/09/14 09:31:25;;;;;;;;;;;23.50;91.10;;;;;;5034949;28;19928;-73
2022/09/14 09:33:50;;;;;;;;;;;23.00;90.40;;;;;;5036347;28;19924;-74
2022/09/14 09:36:17;;;;;;;;;;;23.10;92.10;;;;;;5036232;28;20020;-74
2022/09/14 09:38:42;;;;;;;;;;;22.90;90.30;;;;;;5053888;28;19924;-74
2022/09/14 09:41:13;;;;;;;;;;;22.80;92.00;;;;;;5055757;28;19947;-74
2022/09/14 09:43:55;;;;;;;;;;;22.60;91.50;;;;;;5035776;28;19924;-74
2022/09/14 09:46:21;;;;;;;;;;;22.70;91.30;;;;;;5031218;28;21172;-76
2022/09/14 09:48:49;;;;;;;;;;;22.70;92.30;;;;;;5031633;28;19967;-77
2022/09/14 09:51:24;;;;;;;;;;;22.60;91.70;;;;;;5048300;28;20011;-76
2022/09/14 09:53:51;;;;;;;;;;;22.70;92.70;;;;;;5025846;28;19975;-73
2022/09/14 09:56:27;;;;;;;;;;;22.80;92.20;;;;;;5031176;28;19921;-73
2022/09/14 09:58:52;;;;;;;;;;;22.90;92.10;;;;;;5058441;28;19921;-78
2022/09/14 10:01:26;;;;;;;;;;;23.00;91.00;;;;;;5030670;28;19928;-75
2022/09/14 10:04:10;;;;;;;;;;;23.00;92.20;;;;;;5042261;28;19988;-77
2022/09/14 10:06:40;;;;;;;;;;;23.00;92.10;;;;;;5049103;28;19921;-76
2022/09/14 10:09:11;;;;;;;;;;;23.00;92.10;;;;;;5053197;28;19975;-74
2022/09/14 10:11:37;;;;;;;;;;;23.00;91.60;;;;;;5046518;28;19935;-78
2022/09/14 10:14:03;;;;;;;;;;;22.90;91.90;;;;;;5058704;28;19920;-73
2022/09/14 10:16:35;;;;;;;;;;;22.90;91.90;;;;;;5038397;28;19924;-75
2022/09/14 10:19:02;;;;;;;;;;;22.80;92.60;;;;;;5034666;28;19924;-74
2022/09/14 10:21:27;;;;;;;;;;;22.80;92.70;;;;;;5043990;28;19966;-72
2022/09/14 10:24:15;;;;;;;;;;;22.80;92.60;;;;;;5072500;28;19928;-73
2022/09/14 10:26:41;;;;;;;;;;;22.80;93.20;;;;;;5052308;28;19921;-75
2022/09/14 10:29:27;;;;;;;;;;;22.70;92.40;;;;;;5060939;28;20019;-76
2022/09/14 10:31:57;;;;;;;;;;;22.60;92.10;;;;;;5044539;28;19927;-74
2022/09/14 10:34:22;;;;;;;;;;;22.70;92.60;;;;;;5049698;28;19996;-75
2022/09/14 10:36:57;;;;;;;;;;;23.10;93.10;;;;;;5054510;28;19920;-75
2022/09/14 10:39:45;;;;;;;;;;;23.50;92.10;;;;;;5047593;28;19929;-76
2022/09/14 10:42:10;;;;;;;;;;;23.70;91.30;;;;;;5060725;28;20376;-79
2022/09/14 10:44:44;;;;;;;;;;;23.90;91.70;;;;;;5069986;28;20015;-77
2022/09/14 10:47:16;;;;;;;;;;;24.40;90.90;;;;;;5071437;28;19924;-80
2022/09/14 10:49:48;;;;;;;;;;;24.90;91.20;;;;;;5054238;28;19927;-79
2022/09/14 10:52:18;;;;;;;;;;;25.50;90.40;;;;;;5053838;28;19971;-77
2022/09/14 10:54:56;;;;;;;;;;;25.20;89.80;;;;;;5071735;28;19920;-77
2022/09/14 10:57:22;;;;;;;;;;;25.10;88.00;;;;;;5067654;28;19920;-79
2022/09/14 10:59:53;;;;;;;;;;;24.90;88.10;;;;;;5063227;28;19927;-77
2022/09/14 11:02:23;;;;;;;;;;;24.90;90.00;;;;;;5058480;28;19927;-77
2022/09/14 11:04:52;;;;;;;;;;;24.80;89.90;;;;;;5050110;28;19931;-88
2022/09/14 11:07:21;;;;;;;;;;;24.70;90.70;;;;;;5049822;28;20019;-76
2022/09/14 11:09:46;;;;;;;;;;;25.40;89.20;;;;;;5067484;28;19931;-79
2022/09/14 11:12:18;;;;;;;;;;;26.10;86.20;;;;;;5051799;28;20003;-80
2022/09/14 11:15:02;;;;;;;;;;;26.40;87.40;;;;;;5067762;28;19921;-79
2022/09/14 11:17:34;;;;;;;;;;;26.70;84.70;;;;;;5069609;28;20460;-78
2022/09/14 11:19:59;;;;;;;;;;;26.90;85.00;;;;;;5053924;28;19924;-78
2022/09/14 11:22:28;;;;;;;;;;;27.30;85.60;;;;;;5072677;28;20315;-77
2022/09/14 11:25:03;;;;;;;;;;;27.60;81.00;;;;;;5058076;28;19950;-78
2022/09/14 11:27:38;;;;;;;;;;;28.10;83.10;;;;;;5075027;28;19924;-78
2022/09/14 11:30:04;;;;;;;;;;;28.20;82.70;;;;;;5055977;28;20307;-79
2022/09/14 11:32:39;;;;;;;;;;;28.40;81.60;;;;;;5057827;28;19924;-77
2022/09/14 11:35:14;;;;;;;;;;;28.60;81.70;;;;;;5057552;28;19928;-78
2022/09/14 11:37:43;;;;;;;;;;;28.70;81.20;;;;;;5056973;28;19954;-78
2022/09/14 11:40:21;;;;;;;;;;;29.10;81.30;;;;;;5070946;28;20109;-76
2022/09/14 11:42:50;;;;;;;;;;;29.30;80.10;;;;;;5070200;28;19954;-77
2022/09/14 11:45:19;;;;;;;;;;;28.80;78.70;;;;;;5063000;28;20292;-77
2022/09/14 11:47:49;;;;;;;;;;;28.10;79.20;;;;;;5066735;28;19920;-76
2022/09/14 11:50:19;;;;;;;;;;;27.90;82.00;;;;;;5063329;28;19971;-77
2022/09/14 11:52:46;;;;;;;;;;;28.40;79.60;;;;;;5048603;28;19943;-77
2022/09/14 11:55:16;;;;;;;;;;;29.50;81.00;;;;;;5044943;28;19921;-78
2022/09/14 11:57:48;;;;;;;;;;;30.60;78.40;;;;;;5066667;28;19920;-77
2022/09/14 12:00:23;;;;;;;;;;;30.90;76.40;;;;;;5048197;28;19920;-75
2022/09/14 12:02:57;;;;;;;;;;;30.20;77.20;;;;;;5074610;28;20011;-76
2022/09/14 12:05:25;;;;;;;;;;;29.40;77.00;;;;;;5048033;28;19927;-77
2022/09/14 12:08:01;;;;;;;;;;;28.60;77.40;;;;;;5065389;28;19927;-76
2022/09/14 12:10:26;;;;;;;;;;;28.30;79.90;;;;;;5047650;28;19943;-76
2022/09/14 12:13:04;;;;;;;;;;;27.90;80.80;;;;;;5062385;28;20375;-78
2022/09/14 12:15:36;;;;;;;;;;;27.60;80.00;;;;;;5074541;28;19924;-79
2022/09/14 12:18:05;;;;;;;;;;;26.90;80.20;;;;;;5074823;28;20303;-80
2022/09/14 12:20:36;;;;;;;;;;;26.50;80.70;;;;;;5071518;28;19931;-77
2022/09/14 12:23:20;;;;;;;;;;;26.00;82.50;;;;;;5028198;28;19927;-78
2022/09/14 12:25:54;;;;;;;;;;;25.60;84.20;;;;;;5034197;28;19927;-77
2022/09/14 12:28:35;;;;;;;;;;;25.30;84.50;;;;;;5033974;28;20311;-77
2022/09/14 12:31:03;;;;;;;;;;;25.70;85.40;;;;;;5032153;28;19927;-78
2022/09/14 12:33:32;;;;;;;;;;;26.00;85.40;;;;;;5035145;28;19932;-77
2022/09/14 12:35:58;;;;;;;;;;;26.10;82.80;;;;;;5035868;28;19947;-76
2022/09/14 12:38:29;;;;;;;;;;;25.40;84.00;;;;;;5054239;28;19959;-76
2022/09/14 12:40:56;;;;;;;;;;;25.40;85.50;;;;;;5053579;28;19920;-77
2022/09/14 12:43:33;;;;;;;;;;;25.50;85.70;;;;;;5031117;28;19921;-79
2022/09/14 12:46:30;;;;;;;;;;;25.80;85.70;;;;;;5031999;28;19994;-79
2022/09/14 12:48:58;;;;;;;;;;;26.20;84.30;;;;;;5035856;28;20402;-78
2022/09/14 12:51:31;;;;;;;;;;;26.90;83.80;;;;;;5053591;28;19921;-79
2022/09/14 12:54:00;;;;;;;;;;;26.80;84.10;;;;;;5049729;28;20015;-77
2022/09/14 12:56:33;;;;;;;;;;;27.10;83.40;;;;;;5035583;28;20019;-78
2022/09/14 12:59:02;;;;;;;;;;;27.00;83.90;;;;;;5041602;28;20388;-77
2022/09/14 13:01:33;;;;;;;;;;;27.20;83.70;;;;;;5031174;28;19921;-77
2022/09/14 13:04:02;;;;;;;;;;;27.10;83.50;;;;;;5032527;28;19986;-76
2022/09/14 13:06:39;;;;;;;;;;;26.80;84.70;;;;;;5040514;28;19928;-76
2022/09/14 13:09:16;;;;;;;;;;;26.30;82.20;;;;;;5035637;28;19920;-76
2022/09/14 13:11:41;;;;;;;;;;;26.20;83.20;;;;;;5053969;28;19921;-77
2022/09/14 13:14:14;;;;;;;;;;;25.90;83.80;;;;;;5028402;28;19921;-77
2022/09/14 13:16:42;;;;;;;;;;;25.70;87.80;;;;;;5024327;28;19925;-76
2022/09/14 13:19:22;;;;;;;;;;;25.50;86.10;;;;;;5044685;28;20269;-77
2022/09/14 13:21:49;;;;;;;;;;;25.50;85.70;;;;;;5049033;28;19927;-78
2022/09/14 13:24:25;;;;;;;;;;;25.80;86.70;;;;;;5046572;28;20005;-76
2022/09/14 13:26:52;;;;;;;;;;;25.70;86.20;;;;;;5045159;28;19928;-77
2022/09/14 13:29:18;;;;;;;;;;;25.30;87.90;;;;;;5026581;28;19956;-78
2022/09/14 13:31:44;;;;;;;;;;;25.50;87.20;;;;;;5035821;28;19959;-76
2022/09/14 13:34:26;;;;;;;;;;;25.60;87.20;;;;;;5035858;28;19971;-77
2022/09/14 13:36:53;;;;;;;;;;;25.80;86.50;;;;;;5031025;28;19928;-77
2022/09/14 13:39:27;;;;;;;;;;;25.60;86.50;;;;;;5052837;28;20412;-77
2022/09/14 13:41:53;;;;;;;;;;;25.20;85.10;;;;;;5049461;28;20008;-77
2022/09/14 13:44:22;;;;;;;;;;;24.90;87.60;;;;;;5040617;28;19927;-77
2022/09/14 13:46:47;;;;;;;;;;;24.50;89.70;;;;;;5040856;28;19967;-78
2022/09/14 13:49:13;;;;;;;;;;;24.10;89.50;;;;;;5026734;28;20013;-77
2022/09/14 13:51:39;;;;;;;;;;;23.80;89.30;;;;;;5023725;28;20392;-76
2022/09/14 13:54:25;;;;;;;;;;;23.60;90.50;;;;;;5042743;28;19990;-75
2022/09/14 13:57:09;;;;;;;;;;;23.50;90.50;;;;;;5030938;28;20043;-75
2022/09/14 13:59:35;;;;;;;;;;;23.40;90.50;;;;;;5026155;28;20430;-74
2022/09/14 14:02:01;;;;;;;;;;;23.30;90.70;;;;;;5028907;28;19921;-75
2022/09/14 14:04:34;;;;;;;;;;;23.30;90.80;;;;;;5042643;28;19979;-74
2022/09/14 14:07:02;;;;;;;;;;;23.20;91.40;;;;;;5051013;28;19924;-71
2022/09/14 14:09:38;;;;;;;;;;;23.10;90.70;;;;;;5034503;28;19925;-80
2022/09/14 14:12:03;;;;;;;;;;;22.80;91.10;;;;;;5034602;28;19921;-74
2022/09/14 14:14:29;;;;;;;;;;;22.80;91.50;;;;;;5040534;28;20493;-75
2022/09/14 14:17:13;;;;;;;;;;;22.60;91.50;;;;;;5023895;28;19928;-73
2022/09/14 14:19:39;;;;;;;;;;;22.40;91.50;;;;;;5025290;28;20411;-75
2022/09/14 14:22:14;;;;;;;;;;;22.40;91.70;;;;;;5059550;28;20015;-80
2022/09/14 14:24:49;;;;;;;;;;;22.30;91.80;;;;;;5044838;28;20279;-80
2022/09/14 14:27:24;;;;;;;;;;;22.20;92.20;;;;;;5050485;28;20319;-78